createdAt,value
2018-02-21T00:01:33.542Z,-0.80
2018-02-21T00:04:01.088Z,-0.80
2018-02-21T00:06:29.391Z,-0.80
2018-02-21T00:08:56.947Z,-0.80
2018-02-21T00:11:24.498Z,-0.80
2018-02-21T00:13:52.066Z,-0.80
2018-02-21T00:16:19.619Z,-0.80
2018-02-21T00:18:47.164Z,-0.70
2018-02-21T00:21:15.476Z,-0.70
2018-02-21T00:23:43.008Z,-0.80
2018-02-21T00:26:10.629Z,-0.70
2018-02-21T00:28:38.223Z,-0.70
2018-02-21T00:31:06.612Z,-0.70
2018-02-21T00:33:34.191Z,-0.80
2018-02-21T00:36:01.802Z,-0.80
2018-02-21T00:38:29.373Z,-0.70
2018-02-21T00:40:57.731Z,-0.70
2018-02-21T00:43:25.285Z,-0.70
2018-02-21T00:45:52.917Z,-0.70
2018-02-21T00:48:20.454Z,-0.70
2018-02-21T00:50:48.106Z,-0.70
2018-02-21T00:53:16.532Z,-0.70
2018-02-21T00:55:44.946Z,-0.70
2018-02-21T00:58:12.565Z,-0.70
2018-02-21T01:00:40.208Z,-0.60
2018-02-21T01:03:07.795Z,-0.70
2018-02-21T01:05:35.445Z,-0.70
2018-02-21T01:08:03.285Z,-0.70
2018-02-21T01:10:30.897Z,-0.70
2018-02-21T01:12:59.295Z,-0.70
2018-02-21T01:15:26.865Z,-0.70
2018-02-21T01:17:54.405Z,-0.60
2018-02-21T01:20:22.004Z,-0.60
2018-02-21T01:22:49.605Z,-0.70
2018-02-21T01:25:17.212Z,-0.60
2018-02-21T01:27:45.579Z,-0.70
2018-02-21T01:30:13.175Z,-0.70
2018-02-21T01:32:41.943Z,-0.70
2018-02-21T01:35:09.557Z,-0.70
2018-02-21T01:37:37.122Z,-0.70
2018-02-21T01:40:04.739Z,-0.60
2018-02-21T01:42:32.306Z,-0.70
2018-02-21T01:44:59.923Z,-0.60
2018-02-21T01:47:28.620Z,-0.70
2018-02-21T01:49:56.177Z,-0.70
2018-02-21T01:52:24.505Z,-0.60
2018-02-21T01:54:52.117Z,-0.70
2018-02-21T01:57:20.441Z,-0.60
2018-02-21T01:59:48.825Z,-0.70
2018-02-21T02:02:16.406Z,-0.70
2018-02-21T02:04:44.813Z,-0.60
2018-02-21T02:07:12.399Z,-0.60
2018-02-21T02:09:40.386Z,-0.60
2018-02-21T02:12:07.964Z,-0.60
2018-02-21T02:14:35.899Z,-0.60
2018-02-21T02:17:03.502Z,-0.60
2018-02-21T02:19:31.088Z,-0.60
2018-02-21T02:21:59.435Z,-0.70
2018-02-21T02:24:28.169Z,-0.70
2018-02-21T02:26:56.526Z,-0.70
2018-02-21T02:29:24.189Z,-0.70
2018-02-21T02:31:51.768Z,-0.70
2018-02-21T02:34:19.379Z,-0.70
2018-02-21T02:36:46.926Z,-0.70
2018-02-21T02:39:26.104Z,-0.70
2018-02-21T02:41:53.638Z,-0.70
2018-02-21T02:44:21.203Z,-0.70
2018-02-21T02:46:48.766Z,-0.70
2018-02-21T02:49:16.355Z,-0.70
2018-02-21T02:51:44.654Z,-0.70
2018-02-21T02:54:12.211Z,-0.70
2018-02-21T02:56:39.763Z,-0.70
2018-02-21T02:59:08.083Z,-0.70
2018-02-21T03:01:35.638Z,-0.70
2018-02-21T03:04:03.271Z,-0.70
2018-02-21T03:06:30.841Z,-0.70
2018-02-21T03:08:59.152Z,-0.70
2018-02-21T03:11:26.730Z,-0.70
2018-02-21T03:13:54.271Z,-0.70
2018-02-21T03:16:21.862Z,-0.70
2018-02-21T03:18:49.496Z,-0.70
2018-02-21T03:21:17.095Z,-0.70
2018-02-21T03:23:45.485Z,-0.70
2018-02-21T03:26:13.008Z,-0.70
2018-02-21T03:28:40.564Z,-0.70
2018-02-21T03:31:08.078Z,-0.70
2018-02-21T03:33:35.672Z,-0.70
2018-02-21T03:36:03.206Z,-0.70
2018-02-21T03:38:31.525Z,-0.80
2018-02-21T03:40:59.063Z,-0.80
2018-02-21T03:43:26.648Z,-0.80
2018-02-21T03:45:54.177Z,-0.80
2018-02-21T03:48:21.724Z,-0.80
2018-02-21T03:50:49.234Z,-0.80
2018-02-21T03:53:17.566Z,-0.90
2018-02-21T03:55:45.102Z,-0.90
2018-02-21T03:58:12.665Z,-0.90
2018-02-21T04:00:40.189Z,-0.90
2018-02-21T04:03:08.504Z,-0.90
2018-02-21T04:05:36.023Z,-0.90
2018-02-21T04:08:03.581Z,-0.90
2018-02-21T04:10:31.105Z,-0.90
2018-02-21T04:12:58.665Z,-0.90
2018-02-21T04:15:26.174Z,-1.00
2018-02-21T04:17:54.512Z,-0.90
2018-02-21T04:20:22.037Z,-1.00
2018-02-21T04:22:49.613Z,-0.90
2018-02-21T04:25:17.130Z,-0.90
2018-02-21T04:27:44.691Z,-0.90
2018-02-21T04:30:12.230Z,-1.00
2018-02-21T04:32:39.788Z,-0.90
2018-02-21T04:35:08.091Z,-1.00
2018-02-21T04:37:35.644Z,-1.00
2018-02-21T04:40:03.178Z,-1.00
2018-02-21T04:42:30.732Z,-1.00
2018-02-21T04:44:58.287Z,-1.00
2018-02-21T04:47:25.845Z,-1.00
2018-02-21T04:49:53.369Z,-1.00
2018-02-21T04:52:20.912Z,-1.00
2018-02-21T04:55:06.279Z,-1.00
2018-02-21T04:57:51.270Z,-1.00
2018-02-21T05:00:21.278Z,-1.10
2018-02-21T05:02:48.846Z,-1.00
2018-02-21T05:05:16.390Z,-1.00
2018-02-21T05:07:43.945Z,-1.00
2018-02-21T05:10:11.464Z,-1.10
2018-02-21T05:12:39.014Z,-1.00
2018-02-21T05:15:06.532Z,-1.00
2018-02-21T05:17:34.113Z,-1.10
2018-02-21T05:20:01.838Z,-1.00
2018-02-21T05:22:30.126Z,-1.10
2018-02-21T05:24:57.699Z,-1.20
2018-02-21T05:27:25.248Z,-1.10
2018-02-21T05:29:52.773Z,-1.10
2018-02-21T05:32:20.327Z,-1.10
2018-02-21T05:34:47.855Z,-1.10
2018-02-21T05:37:15.453Z,-1.10
2018-02-21T05:39:42.957Z,-1.20
2018-02-21T05:42:11.278Z,-1.20
2018-02-21T05:44:38.809Z,-1.20
2018-02-21T05:47:06.361Z,-1.20
2018-02-21T05:49:34.753Z,-1.20
2018-02-21T05:52:02.318Z,-1.20
2018-02-21T05:54:29.858Z,-1.20
2018-02-21T05:56:57.414Z,-1.20
2018-02-21T05:59:24.919Z,-1.20
2018-02-21T06:01:52.611Z,-1.20
2018-02-21T06:04:20.185Z,-1.20
2018-02-21T06:06:47.844Z,-1.20
2018-02-21T06:09:15.394Z,-1.20
2018-02-21T06:11:43.023Z,-1.20
2018-02-21T06:14:10.559Z,-1.20
2018-02-21T06:16:38.440Z,-1.20
2018-02-21T06:19:06.045Z,-1.20
2018-02-21T06:21:33.683Z,-1.20
2018-02-21T06:24:01.258Z,-1.10
2018-02-21T06:26:28.864Z,-1.20
2018-02-21T06:28:56.598Z,-1.20
2018-02-21T06:31:24.178Z,-1.20
2018-02-21T06:33:51.760Z,-1.20
2018-02-21T06:36:19.348Z,-1.20
2018-02-21T06:38:47.670Z,-1.10
2018-02-21T06:41:15.250Z,-1.20
2018-02-21T06:43:42.780Z,-1.20
2018-02-21T06:46:10.385Z,-1.10
2018-02-21T06:48:37.932Z,-1.10
2018-02-21T06:51:05.510Z,-1.10
2018-02-21T06:53:33.866Z,-1.10
2018-02-21T06:56:01.813Z,-1.10
2018-02-21T06:58:29.370Z,-1.10
2018-02-21T07:00:57.369Z,-1.10
2018-02-21T07:03:24.921Z,-1.10
2018-02-21T07:05:52.797Z,-1.10
2018-02-21T07:08:20.337Z,-1.10
2018-02-21T07:10:47.926Z,-1.10
2018-02-21T07:13:15.525Z,-1.10
2018-02-21T07:15:43.104Z,-1.10
2018-02-21T07:18:11.547Z,-1.10
2018-02-21T07:20:39.117Z,-1.10
2018-02-21T07:23:06.809Z,-1.10
2018-02-21T07:25:35.183Z,-1.10
2018-02-21T07:28:02.752Z,-1.10
2018-02-21T07:30:30.354Z,-1.00
2018-02-21T07:32:57.945Z,-1.00
2018-02-21T07:35:26.709Z,-1.00
2018-02-21T07:37:55.031Z,-1.00
2018-02-21T07:40:23.367Z,-1.00
2018-02-21T07:42:50.908Z,-1.00
2018-02-21T07:45:18.507Z,-1.10
2018-02-21T07:47:46.063Z,-1.10
2018-02-21T07:50:14.786Z,-1.00
2018-02-21T07:52:43.143Z,-1.10
2018-02-21T07:55:10.735Z,-1.10
2018-02-21T07:57:38.359Z,-1.10
2018-02-21T08:00:05.958Z,-1.10
2018-02-21T08:02:33.512Z,-1.00
2018-02-21T08:05:01.097Z,-1.10
2018-02-21T08:07:28.658Z,-1.10
2018-02-21T08:09:57.412Z,-1.00
2018-02-21T08:12:24.999Z,-1.10
2018-02-21T08:14:52.680Z,-1.00
2018-02-21T08:17:20.227Z,-1.00
2018-02-21T08:19:47.940Z,-1.10
2018-02-21T08:22:15.477Z,-1.00
2018-02-21T08:24:43.053Z,-1.10
2018-02-21T08:27:10.605Z,-1.00
2018-02-21T08:29:38.177Z,-1.00
2018-02-21T08:32:05.696Z,-0.90
2018-02-21T08:34:33.332Z,-0.90
2018-02-21T08:37:00.906Z,-0.90
2018-02-21T08:39:28.453Z,-0.90
2018-02-21T08:41:55.964Z,-0.90
2018-02-21T08:44:23.512Z,-0.90
2018-02-21T08:46:51.794Z,-0.90
2018-02-21T08:49:19.355Z,-1.00
2018-02-21T08:51:46.868Z,-0.90
2018-02-21T08:54:15.652Z,-0.90
2018-02-21T08:56:43.206Z,-0.80
2018-02-21T08:59:10.732Z,-0.80
2018-02-21T09:01:38.254Z,-0.70
2018-02-21T09:04:05.814Z,-0.70
2018-02-21T09:06:34.144Z,-0.60
2018-02-21T09:09:02.931Z,-0.60
2018-02-21T09:11:30.771Z,-0.60
2018-02-21T09:13:59.103Z,-0.60
2018-02-21T09:16:26.648Z,-0.70
2018-02-21T09:18:55.054Z,-0.60
2018-02-21T09:21:23.726Z,-0.60
2018-02-21T09:23:51.302Z,-0.50
2018-02-21T09:26:18.840Z,-0.50
2018-02-21T09:28:46.432Z,-0.50
2018-02-21T09:31:13.984Z,-0.40
2018-02-21T09:33:41.541Z,-0.40
2018-02-21T09:36:09.080Z,-0.40
2018-02-21T09:38:36.669Z,-0.40
2018-02-21T09:41:04.212Z,-0.30
2018-02-21T09:43:31.790Z,-0.20
2018-02-21T09:45:59.349Z,-0.30
2018-02-21T09:48:27.638Z,-0.20
2018-02-21T09:50:55.982Z,-0.20
2018-02-21T09:53:23.546Z,-0.20
2018-02-21T09:55:51.108Z,-0.30
2018-02-21T09:58:18.633Z,-0.20
2018-02-21T10:00:46.191Z,-0.20
2018-02-21T10:03:13.736Z,-0.20
2018-02-21T10:05:41.267Z,-0.20
2018-02-21T10:08:09.570Z,-0.20
2018-02-21T10:10:37.160Z,-0.20
2018-02-21T10:13:04.672Z,-0.20
2018-02-21T10:15:32.269Z,-0.20
2018-02-21T10:17:59.772Z,-0.10
2018-02-21T10:20:27.349Z,-0.20
2018-02-21T10:22:54.872Z,-0.10
2018-02-21T10:25:22.419Z,-0.10
2018-02-21T10:27:49.965Z,-0.10
2018-02-21T10:30:17.525Z,-0.10
2018-02-21T10:32:45.042Z,-0.10
2018-02-21T10:35:12.629Z,-0.10
2018-02-21T10:37:40.174Z,0.00
2018-02-21T10:40:07.768Z,-0.10
2018-02-21T10:42:35.350Z,0.00
2018-02-21T10:45:02.906Z,0.00
2018-02-21T10:47:31.145Z,0.00
2018-02-21T10:49:58.693Z,0.00
2018-02-21T10:52:26.286Z,0.00
2018-02-21T10:54:53.880Z,0.00
2018-02-21T10:57:21.393Z,0.00
2018-02-21T10:59:48.970Z,0.00
2018-02-21T11:02:16.494Z,0.00
2018-02-21T11:04:44.095Z,-0.10
2018-02-21T11:07:11.668Z,-0.10
2018-02-21T11:09:39.256Z,0.00
2018-02-21T11:12:06.803Z,0.00
2018-02-21T11:14:35.154Z,0.10
2018-02-21T11:17:02.943Z,0.00
2018-02-21T11:19:30.560Z,0.10
2018-02-21T11:21:58.099Z,0.10
2018-02-21T11:24:25.707Z,0.10
2018-02-21T11:26:53.232Z,0.10
2018-02-21T11:29:20.798Z,0.20
2018-02-21T11:31:48.347Z,0.20
2018-02-21T11:34:15.917Z,0.20
2018-02-21T11:36:43.484Z,0.20
2018-02-21T11:39:11.072Z,0.20
2018-02-21T11:41:38.607Z,0.20
2018-02-21T11:44:06.171Z,0.30
2018-02-21T11:46:33.730Z,0.30
2018-02-21T11:49:01.306Z,0.20
2018-02-21T11:51:28.847Z,0.10
2018-02-21T11:53:56.425Z,0.20
2018-02-21T11:56:23.983Z,0.20
2018-02-21T11:58:51.613Z,0.20
2018-02-21T12:01:19.214Z,0.20
2018-02-21T12:03:46.866Z,0.20
2018-02-21T12:06:14.479Z,0.20
2018-02-21T12:08:42.026Z,0.20
2018-02-21T12:11:09.618Z,0.20
2018-02-21T12:13:37.239Z,0.20
2018-02-21T12:16:04.846Z,0.20
2018-02-21T12:18:32.403Z,0.20
2018-02-21T12:20:59.979Z,0.20
2018-02-21T12:23:27.584Z,0.20
2018-02-21T12:25:55.120Z,0.20
2018-02-21T12:28:22.723Z,0.20
2018-02-21T12:30:50.289Z,0.20
2018-02-21T12:33:17.888Z,0.20
2018-02-21T12:35:45.459Z,0.20
2018-02-21T12:38:13.039Z,0.20
2018-02-21T12:40:47.867Z,0.20
2018-02-21T12:43:16.231Z,0.20
2018-02-21T12:45:43.727Z,0.20
2018-02-21T12:48:11.245Z,0.30
2018-02-21T12:50:38.814Z,0.30
2018-02-21T12:53:07.146Z,0.20
2018-02-21T12:55:34.662Z,0.20
2018-02-21T12:58:02.989Z,0.20
2018-02-21T13:00:30.505Z,0.20
2018-02-21T13:02:58.048Z,0.20
2018-02-21T13:05:26.347Z,0.20
2018-02-21T13:07:53.940Z,0.10
2018-02-21T13:10:21.490Z,0.20
2018-02-21T13:12:49.080Z,0.20
2018-02-21T13:15:16.665Z,0.20
2018-02-21T13:17:44.205Z,0.10
2018-02-21T13:20:11.806Z,0.10
2018-02-21T13:22:39.356Z,0.10
2018-02-21T13:25:06.957Z,0.10
2018-02-21T13:27:34.515Z,0.10
2018-02-21T13:30:02.524Z,0.10
2018-02-21T13:32:30.908Z,0.20
2018-02-21T13:34:58.510Z,0.10
2018-02-21T13:37:26.094Z,0.20
2018-02-21T13:39:53.678Z,0.20
2018-02-21T13:42:21.216Z,0.20
2018-02-21T13:44:48.799Z,0.20
2018-02-21T13:47:16.347Z,0.30
2018-02-21T13:49:43.924Z,0.30
2018-02-21T13:52:11.465Z,0.20
2018-02-21T13:54:39.074Z,0.20
2018-02-21T13:57:06.623Z,0.30
2018-02-21T13:59:34.243Z,0.30
2018-02-21T14:02:02.020Z,0.30
2018-02-21T14:04:29.599Z,0.30
2018-02-21T14:06:57.944Z,0.30
2018-02-21T14:09:25.544Z,0.30
2018-02-21T14:11:54.626Z,0.30
2018-02-21T14:14:22.977Z,0.30
2018-02-21T14:16:51.841Z,0.20
2018-02-21T14:19:19.432Z,0.30
2018-02-21T14:21:46.978Z,0.30
2018-02-21T14:24:16.050Z,0.30
2018-02-21T14:26:43.809Z,0.30
2018-02-21T14:29:11.654Z,0.30
2018-02-21T14:31:39.198Z,0.30
2018-02-21T14:34:07.603Z,0.30
2018-02-21T14:36:36.114Z,0.30
2018-02-21T14:39:03.968Z,0.30
2018-02-21T14:41:31.566Z,0.30
2018-02-21T14:43:59.214Z,0.30
2018-02-21T14:46:27.796Z,0.30
2018-02-21T14:48:55.821Z,0.20
2018-02-21T14:51:24.298Z,0.30
2018-02-21T14:53:51.895Z,0.20
2018-02-21T14:56:20.478Z,0.20
2018-02-21T14:58:48.825Z,0.30
2018-02-21T15:01:18.350Z,0.30
2018-02-21T15:03:46.091Z,0.20
2018-02-21T15:06:13.702Z,0.20
2018-02-21T15:08:42.098Z,0.30
2018-02-21T15:11:09.751Z,0.20
2018-02-21T15:13:37.816Z,0.30
2018-02-21T15:16:05.680Z,0.30
2018-02-21T15:18:34.071Z,0.30
2018-02-21T15:21:02.445Z,0.20
2018-02-21T15:23:30.080Z,0.20
2018-02-21T15:25:57.742Z,0.20
2018-02-21T15:28:25.332Z,0.20
2018-02-21T15:30:52.948Z,0.20
2018-02-21T15:33:20.619Z,0.20
2018-02-21T15:35:49.331Z,0.20
2018-02-21T15:38:18.159Z,0.10
2018-02-21T15:40:46.710Z,0.10
2018-02-21T15:43:14.322Z,0.10
2018-02-21T15:45:41.957Z,0.10
2018-02-21T15:48:09.507Z,0.10
2018-02-21T15:50:37.120Z,0.10
2018-02-21T15:53:04.669Z,0.10
2018-02-21T15:55:32.895Z,0.00
2018-02-21T15:58:00.535Z,0.00
2018-02-21T16:00:28.581Z,0.00
2018-02-21T16:02:56.153Z,0.00
2018-02-21T16:05:23.928Z,0.00
2018-02-21T16:07:51.529Z,0.00
2018-02-21T16:10:19.130Z,0.00
2018-02-21T16:12:46.792Z,0.00
2018-02-21T16:15:14.409Z,0.00
2018-02-21T16:17:42.144Z,-0.10
2018-02-21T16:20:09.754Z,-0.10
2018-02-21T16:22:37.369Z,-0.10
2018-02-21T16:25:04.987Z,-0.20
2018-02-21T16:27:32.542Z,-0.20
2018-02-21T16:30:00.136Z,-0.20
2018-02-21T16:32:27.685Z,-0.20
2018-02-21T16:34:55.298Z,-0.20
2018-02-21T16:37:22.890Z,-0.30
2018-02-21T16:39:50.499Z,-0.30
2018-02-21T16:42:19.255Z,-0.30
2018-02-21T16:44:46.856Z,-0.30
2018-02-21T16:47:14.439Z,-0.30
2018-02-21T16:49:42.047Z,-0.40
2018-02-21T16:52:09.613Z,-0.40
2018-02-21T16:54:37.194Z,-0.40
2018-02-21T16:57:04.800Z,-0.40
2018-02-21T16:59:32.491Z,-0.40
2018-02-21T17:02:00.116Z,-0.40
2018-02-21T17:04:27.747Z,-0.40
2018-02-21T17:06:55.301Z,-0.40
2018-02-21T17:09:23.701Z,-0.40
2018-02-21T17:11:51.304Z,-0.50
2018-02-21T17:14:18.943Z,-0.50
2018-02-21T17:16:46.472Z,-0.50
2018-02-21T17:19:14.068Z,-0.50
2018-02-21T17:21:41.621Z,-0.60
2018-02-21T17:24:09.199Z,-0.70
2018-02-21T17:26:36.713Z,-0.80
2018-02-21T17:29:05.060Z,-0.90
2018-02-21T17:31:32.585Z,-0.90
2018-02-21T17:34:00.153Z,-1.00
2018-02-21T17:36:27.714Z,-1.00
2018-02-21T17:38:55.228Z,-1.00
2018-02-21T17:41:29.297Z,-1.10
2018-02-21T17:43:56.858Z,-1.10
2018-02-21T17:46:24.375Z,-1.10
2018-02-21T17:48:51.943Z,-1.10
2018-02-21T17:51:19.502Z,-1.10
2018-02-21T17:53:47.070Z,-1.20
2018-02-21T17:56:14.624Z,-1.20
2018-02-21T17:58:42.175Z,-1.20
2018-02-21T18:01:09.741Z,-1.20
2018-02-21T18:03:37.265Z,-1.20
2018-02-21T18:06:04.859Z,-1.20
2018-02-21T18:08:32.483Z,-1.20
2018-02-21T18:11:00.052Z,-1.20
2018-02-21T18:13:27.623Z,-1.10
2018-02-21T18:15:55.187Z,-1.20
2018-02-21T18:18:23.479Z,-1.10
2018-02-21T18:20:51.033Z,-1.20
2018-02-21T18:23:18.591Z,-1.10
2018-02-21T18:25:46.897Z,-1.10
2018-02-21T18:28:15.578Z,-1.20
2018-02-21T18:30:43.429Z,-1.10
2018-02-21T18:33:10.973Z,-1.10
2018-02-21T18:35:38.579Z,-1.10
2018-02-21T18:38:06.131Z,-1.20
2018-02-21T18:40:33.773Z,-1.20
2018-02-21T18:43:01.369Z,-1.20
2018-02-21T18:45:28.913Z,-1.20
2018-02-21T18:47:56.488Z,-1.20
2018-02-21T18:50:24.062Z,-1.20
2018-02-21T18:52:51.594Z,-1.20
2018-02-21T18:55:19.981Z,-1.20
2018-02-21T18:57:47.548Z,-1.10
2018-02-21T19:00:15.159Z,-1.20
2018-02-21T19:02:43.455Z,-1.20
2018-02-21T19:05:11.031Z,-1.20
2018-02-21T19:07:38.577Z,-1.10
2018-02-21T19:10:06.147Z,-1.20
2018-02-21T19:12:33.689Z,-1.20
2018-02-21T19:15:02.438Z,-1.20
2018-02-21T19:17:30.036Z,-1.20
2018-02-21T19:19:57.630Z,-1.20
2018-02-21T19:22:25.195Z,-1.20
2018-02-21T19:24:53.167Z,-1.20
2018-02-21T19:27:20.798Z,-1.10
2018-02-21T19:29:48.433Z,-1.20
2018-02-21T19:32:16.711Z,-1.10
2018-02-21T19:34:44.288Z,-1.10
2018-02-21T19:37:11.885Z,-1.10
2018-02-21T19:39:39.512Z,-1.10
2018-02-21T19:42:07.097Z,-1.10
2018-02-21T19:44:34.864Z,-1.20
2018-02-21T19:47:02.435Z,-1.10
2018-02-21T19:49:30.092Z,-1.10
2018-02-21T19:51:58.693Z,-1.10
2018-02-21T19:54:26.385Z,-1.20
2018-02-21T19:56:53.948Z,-1.10
2018-02-21T19:59:21.659Z,-1.10
2018-02-21T20:01:49.252Z,-1.10
2018-02-21T20:04:16.809Z,-1.20
2018-02-21T20:06:45.159Z,-1.10
2018-02-21T20:09:12.775Z,-1.20
2018-02-21T20:11:40.443Z,-1.20
2018-02-21T20:14:08.784Z,-1.20
2018-02-21T20:16:37.240Z,-1.20
2018-02-21T20:19:04.891Z,-1.20
2018-02-21T20:21:32.488Z,-1.20
2018-02-21T20:24:01.665Z,-1.20
2018-02-21T20:26:29.229Z,-1.30
2018-02-21T20:28:56.853Z,-1.20
2018-02-21T20:31:24.435Z,-1.20
2018-02-21T20:33:52.076Z,-1.20
2018-02-21T20:36:20.836Z,-1.30
2018-02-21T20:38:48.458Z,-1.30
2018-02-21T20:41:16.833Z,-1.30
2018-02-21T20:43:44.433Z,-1.30
2018-02-21T20:46:11.994Z,-1.30
2018-02-21T20:48:39.589Z,-1.30
2018-02-21T20:51:07.225Z,-1.30
2018-02-21T20:53:34.768Z,-1.30
2018-02-21T20:56:03.130Z,-1.20
2018-02-21T20:58:31.481Z,-1.30
2018-02-21T21:00:59.131Z,-1.30
2018-02-21T21:03:26.694Z,-1.30
2018-02-21T21:05:54.295Z,-1.30
2018-02-21T21:08:21.978Z,-1.30
2018-02-21T21:10:50.307Z,-1.30
2018-02-21T21:13:17.854Z,-1.30
2018-02-21T21:15:46.697Z,-1.30
2018-02-21T21:18:14.477Z,-1.30
2018-02-21T21:20:42.051Z,-1.30
2018-02-21T21:23:09.640Z,-1.30
2018-02-21T21:25:37.236Z,-1.30
2018-02-21T21:28:05.684Z,-1.30
2018-02-21T21:30:34.425Z,-1.30
2018-02-21T21:33:02.030Z,-1.30
2018-02-21T21:35:30.369Z,-1.30
2018-02-21T21:37:58.297Z,-1.20
2018-02-21T21:40:25.937Z,-1.30
2018-02-21T21:42:54.740Z,-1.30
2018-02-21T21:45:24.505Z,-1.30
2018-02-21T21:47:52.111Z,-1.30
2018-02-21T21:50:19.747Z,-1.30
2018-02-21T21:52:47.311Z,-1.30
2018-02-21T21:55:14.894Z,-1.30
2018-02-21T21:57:42.495Z,-1.30
2018-02-21T22:00:10.065Z,-1.30
2018-02-21T22:02:37.649Z,-1.30
2018-02-21T22:05:05.237Z,-1.30
2018-02-21T22:07:32.828Z,-1.30
2018-02-21T22:10:01.126Z,-1.30
2018-02-21T22:12:28.771Z,-1.40
2018-02-21T22:14:56.373Z,-1.30
2018-02-21T22:17:23.966Z,-1.30
2018-02-21T22:19:51.685Z,-1.30
2018-02-21T22:22:19.252Z,-1.30
2018-02-21T22:24:46.889Z,-1.30
2018-02-21T22:27:14.544Z,-1.30
2018-02-21T22:29:42.147Z,-1.30
2018-02-21T22:32:09.768Z,-1.30
2018-02-21T22:34:37.369Z,-1.30
2018-02-21T22:37:04.965Z,-1.30
2018-02-21T22:39:33.313Z,-1.30
2018-02-21T22:42:00.856Z,-1.30
2018-02-21T22:44:28.447Z,-1.30
2018-02-21T22:46:55.985Z,-1.30
2018-02-21T22:49:23.589Z,-1.30
2018-02-21T22:51:51.615Z,-1.30
2018-02-21T22:54:19.289Z,-1.30
2018-02-21T22:56:48.105Z,-1.30
2018-02-21T22:59:16.526Z,-1.30
2018-02-21T23:01:44.109Z,-1.30
2018-02-21T23:04:11.732Z,-1.20
2018-02-21T23:06:39.297Z,-1.30
2018-02-21T23:09:07.147Z,-1.30
2018-02-21T23:11:34.767Z,-1.20
2018-02-21T23:14:02.329Z,-1.30
2018-02-21T23:16:29.931Z,-1.30
2018-02-21T23:18:57.545Z,-1.30
2018-02-21T23:21:25.125Z,-1.30
2018-02-21T23:23:52.712Z,-1.30
2018-02-21T23:26:20.629Z,-1.30
2018-02-21T23:28:48.266Z,-1.30
2018-02-21T23:31:17.072Z,-1.30
2018-02-21T23:33:44.974Z,-1.40
2018-02-21T23:36:13.323Z,-1.40
2018-02-21T23:38:40.933Z,-1.40
2018-02-21T23:41:08.698Z,-1.40
2018-02-21T23:43:36.301Z,-1.40
2018-02-21T23:46:03.930Z,-1.30
2018-02-21T23:48:31.541Z,-1.30
2018-02-21T23:50:59.091Z,-1.40
2018-02-21T23:53:26.687Z,-1.40
2018-02-21T23:55:54.236Z,-1.40
2018-02-21T23:58:21.891Z,-1.40
